createdAt,value
2022-11-15T00:02:25.544Z,18.07
2022-11-15T00:04:51.966Z,18.08
2022-11-15T00:07:48.443Z,18.08
2022-11-15T00:10:04.761Z,18.05
2022-11-15T00:12:31.074Z,18.08
2022-11-15T00:14:57.653Z,18.02
2022-11-15T00:17:24.006Z,18.02
2022-11-15T00:19:50.413Z,18.02
2022-11-15T00:22:16.855Z,18.01
2022-11-15T00:24:43.299Z,18.02
2022-11-15T00:27:09.634Z,17.99
2022-11-15T00:29:35.986Z,17.98
2022-11-15T00:32:02.315Z,18.00
2022-11-15T00:34:28.938Z,17.98
2022-11-15T00:36:55.375Z,17.97
2022-11-15T00:39:21.727Z,17.97
2022-11-15T00:41:48.951Z,17.96
2022-11-15T00:44:15.303Z,17.95
2022-11-15T00:46:41.747Z,17.95
2022-11-15T00:49:08.039Z,17.95
2022-11-15T00:51:34.354Z,17.95
2022-11-15T00:54:00.703Z,17.94
2022-11-15T00:56:27.346Z,17.94
2022-11-15T00:58:53.718Z,17.94
2022-11-15T01:01:20.191Z,17.93
2022-11-15T01:03:46.708Z,17.92
2022-11-15T01:06:13.216Z,17.92
2022-11-15T01:08:39.507Z,17.90
2022-11-15T01:11:05.803Z,17.90
2022-11-15T01:13:32.513Z,17.87
2022-11-15T01:15:59.161Z,17.86
2022-11-15T01:18:25.531Z,17.87
2022-11-15T01:20:51.946Z,17.86
2022-11-15T01:23:18.432Z,17.86
2022-11-15T01:25:44.782Z,17.83
2022-11-15T01:28:11.184Z,17.84
2022-11-15T01:30:37.563Z,17.84
2022-11-15T01:33:03.995Z,17.81
2022-11-15T01:35:30.281Z,17.80
2022-11-15T01:37:56.824Z,17.82
2022-11-15T01:40:23.192Z,17.80
2022-11-15T01:42:49.646Z,17.79
2022-11-15T01:45:15.958Z,17.78
2022-11-15T01:47:42.293Z,17.76
2022-11-15T01:50:08.779Z,17.76
2022-11-15T01:52:35.101Z,17.77
2022-11-15T01:55:01.527Z,17.76
2022-11-15T01:57:28.302Z,17.74
2022-11-15T01:59:54.785Z,17.74
2022-11-15T02:02:21.097Z,17.72
2022-11-15T02:04:47.659Z,17.72
2022-11-15T02:07:14.258Z,17.72
2022-11-15T02:09:40.965Z,17.71
2022-11-15T02:12:07.276Z,17.74
2022-11-15T02:14:34.098Z,17.70
2022-11-15T02:17:00.389Z,17.71
2022-11-15T02:19:26.798Z,17.69
2022-11-15T02:21:53.180Z,17.68
2022-11-15T02:24:19.817Z,17.68
2022-11-15T02:26:46.121Z,17.68
2022-11-15T02:29:12.721Z,17.66
2022-11-15T02:31:39.072Z,17.66
2022-11-15T02:34:05.369Z,17.65
2022-11-15T02:36:31.673Z,17.65
2022-11-15T02:38:57.938Z,17.63
2022-11-15T02:41:24.264Z,17.64
2022-11-15T02:43:50.593Z,17.64
2022-11-15T02:46:16.913Z,17.62
2022-11-15T02:48:43.193Z,17.62
2022-11-15T02:51:09.532Z,17.62
2022-11-15T02:53:35.942Z,17.60
2022-11-15T02:56:02.292Z,17.61
2022-11-15T02:58:28.633Z,17.59
2022-11-15T03:00:55.012Z,17.58
2022-11-15T03:03:21.431Z,17.58
2022-11-15T03:05:47.892Z,17.58
2022-11-15T03:08:14.231Z,17.58
2022-11-15T03:10:40.575Z,17.58
2022-11-15T03:13:06.890Z,17.57
2022-11-15T03:15:33.232Z,17.54
2022-11-15T03:18:00.192Z,17.56
2022-11-15T03:20:26.837Z,17.55
2022-11-15T03:22:53.242Z,17.55
2022-11-15T03:25:19.546Z,17.51
2022-11-15T03:27:46.062Z,17.54
2022-11-15T03:30:12.432Z,17.53
2022-11-15T03:32:38.868Z,17.52
2022-11-15T03:35:05.320Z,17.51
2022-11-15T03:37:31.632Z,17.50
2022-11-15T03:39:58.026Z,17.50
2022-11-15T03:42:24.340Z,17.50
2022-11-15T03:44:50.684Z,17.49
2022-11-15T03:47:17.028Z,17.50
2022-11-15T03:49:43.384Z,17.50
2022-11-15T03:52:09.768Z,17.47
2022-11-15T03:54:36.088Z,17.48
2022-11-15T03:57:02.486Z,17.46
2022-11-15T03:59:28.914Z,17.46
2022-11-15T04:01:55.223Z,17.45
2022-11-15T04:04:21.615Z,17.45
2022-11-15T04:06:48.057Z,17.45
2022-11-15T04:09:14.546Z,17.45
2022-11-15T04:11:40.880Z,17.43
2022-11-15T04:14:07.277Z,17.44
2022-11-15T04:16:33.690Z,17.43
2022-11-15T04:19:00.010Z,17.42
2022-11-15T04:21:26.356Z,17.42
2022-11-15T04:23:52.740Z,17.41
2022-11-15T04:26:19.000Z,17.40
2022-11-15T04:28:45.465Z,17.41
2022-11-15T04:31:11.754Z,17.40
2022-11-15T04:33:39.291Z,17.39
2022-11-15T04:36:05.611Z,17.37
2022-11-15T04:38:32.067Z,17.37
2022-11-15T04:40:58.436Z,17.38
2022-11-15T04:43:24.798Z,17.38
2022-11-15T04:45:51.067Z,17.36
2022-11-15T04:48:17.683Z,17.36
2022-11-15T04:50:43.965Z,17.36
2022-11-15T04:53:10.693Z,17.37
2022-11-15T04:55:37.198Z,17.36
2022-11-15T04:58:03.572Z,17.37
2022-11-15T05:00:29.848Z,17.35
2022-11-15T05:02:56.176Z,17.33
2022-11-15T05:05:22.476Z,17.34
2022-11-15T05:07:48.881Z,17.33
2022-11-15T05:10:15.160Z,17.32
2022-11-15T05:12:41.536Z,17.32
2022-11-15T05:15:07.863Z,17.33
2022-11-15T05:17:34.119Z,17.31
2022-11-15T05:20:00.566Z,17.29
2022-11-15T05:22:27.119Z,17.30
2022-11-15T05:24:53.433Z,17.28
2022-11-15T05:27:19.857Z,17.29
2022-11-15T05:29:46.202Z,17.30
2022-11-15T05:32:12.517Z,17.30
2022-11-15T05:34:38.975Z,17.28
2022-11-15T05:37:05.322Z,17.28
2022-11-15T05:39:31.884Z,17.27
2022-11-15T05:41:58.284Z,17.27
2022-11-15T05:44:24.615Z,17.22
2022-11-15T05:46:50.911Z,17.26
2022-11-15T05:49:17.340Z,17.24
2022-11-15T05:51:43.611Z,17.25
2022-11-15T05:54:11.973Z,17.20
2022-11-15T05:56:38.351Z,17.24
2022-11-15T05:59:04.936Z,17.24
2022-11-15T06:01:31.295Z,17.22
2022-11-15T06:03:57.586Z,17.22
2022-11-15T06:06:23.910Z,17.20
2022-11-15T06:08:50.474Z,17.21
2022-11-15T06:11:16.828Z,17.21
2022-11-15T06:13:43.294Z,17.19
2022-11-15T06:16:09.655Z,17.19
2022-11-15T06:18:35.987Z,17.19
2022-11-15T06:21:02.496Z,17.21
2022-11-15T06:23:29.123Z,17.17
2022-11-15T06:25:55.717Z,17.19
2022-11-15T06:28:22.197Z,17.18
2022-11-15T06:30:53.026Z,17.18
2022-11-15T06:33:19.718Z,17.17
2022-11-15T06:35:46.011Z,17.17
2022-11-15T06:38:12.413Z,17.17
2022-11-15T06:40:38.867Z,17.17
2022-11-15T06:43:05.291Z,17.16
2022-11-15T06:45:32.807Z,17.16
2022-11-15T06:47:59.730Z,17.12
2022-11-15T06:50:26.914Z,17.09
2022-11-15T06:52:53.700Z,17.07
2022-11-15T06:55:20.482Z,17.09
2022-11-15T06:57:47.439Z,17.10
2022-11-15T07:00:14.630Z,17.09
2022-11-15T07:02:41.594Z,17.08
2022-11-15T07:05:08.362Z,17.07
2022-11-15T07:10:19.840Z,17.08
2022-11-15T07:15:27.198Z,17.08
2022-11-15T07:17:54.923Z,17.07
2022-11-15T07:20:21.606Z,17.06
2022-11-15T07:22:48.235Z,17.07
2022-11-15T07:25:14.899Z,17.04
2022-11-15T07:27:41.535Z,17.00
2022-11-15T07:30:08.018Z,17.01
2022-11-15T07:32:34.541Z,17.00
2022-11-15T07:35:00.913Z,16.98
2022-11-15T07:37:27.370Z,16.99
2022-11-15T07:39:53.794Z,16.97
2022-11-15T07:42:20.054Z,16.96
2022-11-15T07:44:46.470Z,16.99
2022-11-15T07:47:12.948Z,16.99
2022-11-15T07:49:39.333Z,17.01
2022-11-15T07:52:05.702Z,17.01
2022-11-15T07:54:31.997Z,17.00
2022-11-15T07:57:01.239Z,17.03
2022-11-15T07:59:32.182Z,17.00
2022-11-15T08:01:58.645Z,17.02
2022-11-15T08:04:25.171Z,17.01
2022-11-15T08:06:51.525Z,17.02
2022-11-15T08:09:17.867Z,17.03
2022-11-15T08:11:44.198Z,17.04
2022-11-15T08:14:10.565Z,17.04
2022-11-15T08:16:36.990Z,17.05
2022-11-15T08:19:03.374Z,17.06
2022-11-15T08:21:29.678Z,17.05
2022-11-15T08:23:55.976Z,17.04
2022-11-15T08:26:22.476Z,17.04
2022-11-15T08:28:48.856Z,17.06
2022-11-15T08:31:15.353Z,17.07
2022-11-15T08:33:41.639Z,17.08
2022-11-15T08:36:08.047Z,17.07
2022-11-15T08:38:34.711Z,17.06
2022-11-15T08:41:01.315Z,17.07
2022-11-15T08:43:27.700Z,17.08
2022-11-15T08:45:54.078Z,17.08
2022-11-15T08:48:20.474Z,17.08
2022-11-15T08:50:46.889Z,17.10
2022-11-15T08:53:13.413Z,17.10
2022-11-15T08:55:39.738Z,17.11
2022-11-15T08:58:06.114Z,17.09
2022-11-15T09:00:32.723Z,17.10
2022-11-15T09:02:59.110Z,17.12
2022-11-15T09:05:25.529Z,17.10
2022-11-15T09:07:51.875Z,17.10
2022-11-15T09:10:18.326Z,17.11
2022-11-15T09:12:44.767Z,17.12
2022-11-15T09:15:12.189Z,17.11
2022-11-15T09:17:38.500Z,17.11
2022-11-15T09:20:04.970Z,17.11
2022-11-15T09:22:31.336Z,17.11
2022-11-15T09:24:57.649Z,17.12
2022-11-15T09:27:24.161Z,17.11
2022-11-15T09:29:50.816Z,17.12
2022-11-15T09:32:17.916Z,17.11
2022-11-15T09:37:22.917Z,17.11
2022-11-15T09:39:49.533Z,17.12
2022-11-15T09:42:16.180Z,17.11
2022-11-15T09:44:43.654Z,17.11
2022-11-15T09:47:10.281Z,17.11
2022-11-15T09:49:37.414Z,17.11
2022-11-15T09:52:03.971Z,17.12
2022-11-15T09:54:52.081Z,17.12
2022-11-15T09:57:16.750Z,17.13
2022-11-15T09:59:43.153Z,17.12
2022-11-15T10:02:09.603Z,17.12
2022-11-15T10:04:36.173Z,17.12
2022-11-15T10:07:02.604Z,17.13
2022-11-15T10:09:28.997Z,17.13
2022-11-15T10:11:55.405Z,17.13
2022-11-15T10:14:21.880Z,17.13
2022-11-15T10:16:48.258Z,17.12
2022-11-15T10:19:14.818Z,17.13
2022-11-15T10:21:41.262Z,17.12
2022-11-15T10:24:07.590Z,17.12
2022-11-15T10:26:34.034Z,17.12
2022-11-15T10:29:00.682Z,17.33
2022-11-15T10:31:27.043Z,17.16
2022-11-15T10:33:53.595Z,17.17
2022-11-15T10:36:20.128Z,17.17
2022-11-15T10:38:46.596Z,17.17
2022-11-15T10:41:13.241Z,17.18
2022-11-15T10:43:39.678Z,17.19
2022-11-15T10:46:31.610Z,17.20
2022-11-15T10:48:54.800Z,17.21
2022-11-15T10:51:21.311Z,17.22
2022-11-15T10:53:47.719Z,17.23
2022-11-15T10:56:14.298Z,17.22
2022-11-15T10:58:40.926Z,17.23
2022-11-15T11:01:07.852Z,17.24
2022-11-15T11:03:34.142Z,17.25
2022-11-15T11:06:00.520Z,17.25
2022-11-15T11:08:26.888Z,17.26
2022-11-15T11:10:57.148Z,17.26
2022-11-15T11:13:26.864Z,17.27
2022-11-15T11:15:53.297Z,17.28
2022-11-15T11:18:22.239Z,17.27
2022-11-15T11:20:48.536Z,17.28
2022-11-15T11:23:14.981Z,17.26
2022-11-15T11:25:43.500Z,17.27
2022-11-15T11:28:09.882Z,17.27
2022-11-15T11:30:36.183Z,17.27
2022-11-15T11:33:02.636Z,17.27
2022-11-15T11:35:29.113Z,17.28
2022-11-15T11:37:55.644Z,17.27
2022-11-15T11:40:21.957Z,17.26
2022-11-15T11:42:48.407Z,17.27
2022-11-15T11:45:14.751Z,17.27
2022-11-15T11:47:41.113Z,17.26
2022-11-15T11:50:07.494Z,17.26
2022-11-15T11:52:34.289Z,17.27
2022-11-15T11:55:03.049Z,17.28
2022-11-15T11:57:29.742Z,17.27
2022-11-15T11:59:58.571Z,17.26
2022-11-15T12:02:25.089Z,17.26
2022-11-15T12:07:26.529Z,17.26
2022-11-15T12:09:53.079Z,17.25
2022-11-15T12:12:19.850Z,17.27
2022-11-15T12:14:46.415Z,17.26
2022-11-15T12:17:13.072Z,17.25
2022-11-15T12:19:39.460Z,17.25
2022-11-15T12:22:05.969Z,17.25
2022-11-15T12:24:32.316Z,17.24
2022-11-15T12:26:58.652Z,17.24
2022-11-15T12:29:25.994Z,17.24
2022-11-15T12:31:52.449Z,17.24
2022-11-15T12:34:18.859Z,17.23
2022-11-15T12:36:45.284Z,17.23
2022-11-15T12:39:11.702Z,17.23
2022-11-15T12:41:38.118Z,17.23
2022-11-15T12:44:04.622Z,17.23
2022-11-15T12:46:31.030Z,17.25
2022-11-15T12:48:57.538Z,17.22
2022-11-15T12:51:23.959Z,17.21
2022-11-15T12:53:51.465Z,17.22
2022-11-15T12:56:17.777Z,17.20
2022-11-15T12:58:44.104Z,17.20
2022-11-15T13:01:10.407Z,17.19
2022-11-15T13:03:37.058Z,17.17
2022-11-15T13:06:03.589Z,17.17
2022-11-15T13:08:30.241Z,17.16
2022-11-15T13:10:56.918Z,17.15
2022-11-15T13:13:23.543Z,17.16
2022-11-15T13:15:49.930Z,17.15
2022-11-15T13:18:16.342Z,17.14
2022-11-15T13:20:42.769Z,17.14
2022-11-15T13:23:09.245Z,17.14
2022-11-15T13:25:36.740Z,17.10
2022-11-15T13:28:07.742Z,17.13
2022-11-15T13:30:34.372Z,17.13
2022-11-15T13:33:00.886Z,17.14
2022-11-15T13:35:27.303Z,17.16
2022-11-15T13:37:53.783Z,17.18
2022-11-15T13:40:20.321Z,17.18
2022-11-15T13:42:46.627Z,17.19
2022-11-15T13:45:13.349Z,17.20
2022-11-15T13:47:39.925Z,17.20
2022-11-15T13:50:12.112Z,17.26
2022-11-15T13:52:38.892Z,17.31
2022-11-15T13:55:05.416Z,17.35
2022-11-15T13:57:32.159Z,17.41
2022-11-15T13:59:59.009Z,17.46
2022-11-15T14:02:25.438Z,17.53
2022-11-15T14:04:51.748Z,17.60
2022-11-15T14:07:18.101Z,17.68
2022-11-15T14:09:44.409Z,17.77
2022-11-15T14:12:10.837Z,17.84
2022-11-15T14:14:37.212Z,17.93
2022-11-15T14:17:03.808Z,17.98
2022-11-15T14:19:30.316Z,18.06
2022-11-15T14:21:56.695Z,18.14
2022-11-15T14:24:23.066Z,18.18
2022-11-15T14:26:49.379Z,18.26
2022-11-15T14:29:15.674Z,18.30
2022-11-15T14:31:43.953Z,18.39
2022-11-15T14:34:10.550Z,18.47
2022-11-15T14:36:36.924Z,18.52
2022-11-15T14:39:03.248Z,18.58
2022-11-15T14:41:29.616Z,18.64
2022-11-15T14:43:55.967Z,18.70
2022-11-15T14:46:22.353Z,18.74
2022-11-15T14:48:48.752Z,18.79
2022-11-15T14:51:15.779Z,18.83
2022-11-15T14:53:42.289Z,18.88
2022-11-15T14:56:08.673Z,18.89
2022-11-15T14:58:35.196Z,18.93
2022-11-15T15:01:01.681Z,18.97
2022-11-15T15:03:28.086Z,19.00
2022-11-15T15:05:54.631Z,19.04
2022-11-15T15:08:23.319Z,19.07
2022-11-15T15:10:49.878Z,19.12
2022-11-15T15:13:16.415Z,19.12
2022-11-15T15:15:42.726Z,19.12
2022-11-15T15:18:09.130Z,19.15
2022-11-15T15:20:35.828Z,19.17
2022-11-15T15:23:02.408Z,19.23
2022-11-15T15:25:28.822Z,19.26
2022-11-15T15:27:55.138Z,19.29
2022-11-15T15:30:21.576Z,19.29
2022-11-15T15:32:48.028Z,19.28
2022-11-15T15:35:14.498Z,19.31
2022-11-15T15:37:41.007Z,19.30
2022-11-15T15:40:09.996Z,19.32
2022-11-15T15:42:36.436Z,19.32
2022-11-15T15:45:02.818Z,19.32
2022-11-15T15:47:29.277Z,19.31
2022-11-15T15:49:58.500Z,19.32
2022-11-15T15:52:24.858Z,19.33
2022-11-15T15:54:51.193Z,19.33
2022-11-15T15:57:17.537Z,19.36
2022-11-15T15:59:44.021Z,19.32
2022-11-15T16:02:10.525Z,19.35
2022-11-15T16:04:37.109Z,19.30
2022-11-15T16:07:03.528Z,19.32
2022-11-15T16:09:29.891Z,19.34
2022-11-15T16:11:56.305Z,19.35
2022-11-15T16:14:22.861Z,19.35
2022-11-15T16:16:49.533Z,19.32
2022-11-15T16:19:16.222Z,19.33
2022-11-15T16:21:42.556Z,19.31
2022-11-15T16:24:09.143Z,19.31
2022-11-15T16:26:35.596Z,19.30
2022-11-15T16:29:02.082Z,19.27
2022-11-15T16:31:28.723Z,19.26
2022-11-15T16:33:55.040Z,19.26
2022-11-15T16:36:25.657Z,19.26
2022-11-15T16:38:55.878Z,19.27
2022-11-15T16:41:22.288Z,19.26
2022-11-15T16:43:48.668Z,19.25
2022-11-15T16:46:15.042Z,19.26
2022-11-15T16:48:41.319Z,19.25
2022-11-15T16:51:07.719Z,19.25
2022-11-15T16:53:34.165Z,19.26
2022-11-15T16:56:00.567Z,19.25
2022-11-15T16:58:26.895Z,19.23
2022-11-15T17:00:53.305Z,19.23
2022-11-15T17:03:19.727Z,19.24
2022-11-15T17:05:46.162Z,19.20
2022-11-15T17:08:12.546Z,19.22
2022-11-15T17:10:38.879Z,19.22
2022-11-15T17:13:05.268Z,19.21
2022-11-15T17:15:33.668Z,19.17
2022-11-15T17:18:00.001Z,19.16
2022-11-15T17:20:26.505Z,19.18
2022-11-15T17:22:52.862Z,19.16
2022-11-15T17:25:19.296Z,19.17
2022-11-15T17:27:45.618Z,19.16
2022-11-15T17:30:12.012Z,19.13
2022-11-15T17:32:38.367Z,19.12
2022-11-15T17:35:04.755Z,19.12
2022-11-15T17:37:31.146Z,19.11
2022-11-15T17:39:57.522Z,19.11
2022-11-15T17:42:24.020Z,19.12
2022-11-15T17:44:50.342Z,19.11
2022-11-15T17:47:17.834Z,19.11
2022-11-15T17:49:44.543Z,19.09
2022-11-15T17:52:10.873Z,19.09
2022-11-15T17:54:40.245Z,19.10
2022-11-15T17:57:06.588Z,19.09
2022-11-15T17:59:32.918Z,19.07
2022-11-15T18:01:59.243Z,19.08
2022-11-15T18:04:25.700Z,19.07
2022-11-15T18:06:52.274Z,19.05
2022-11-15T18:09:18.790Z,19.10
2022-11-15T18:11:45.192Z,19.11
2022-11-15T18:14:11.621Z,19.13
2022-11-15T18:16:37.908Z,19.16
2022-11-15T18:19:04.321Z,19.19
2022-11-15T18:21:32.698Z,19.21
2022-11-15T18:23:59.228Z,19.22
2022-11-15T18:26:27.831Z,19.25
2022-11-15T18:28:54.455Z,19.26
2022-11-15T18:31:20.775Z,19.26
2022-11-15T18:33:48.150Z,19.27
2022-11-15T18:36:14.789Z,19.24
2022-11-15T18:38:41.208Z,19.27
2022-11-15T18:41:07.907Z,19.30
2022-11-15T18:43:34.561Z,19.31
2022-11-15T18:46:01.076Z,19.28
2022-11-15T18:48:27.436Z,19.29
2022-11-15T18:50:54.133Z,19.32
2022-11-15T18:53:20.734Z,19.34
2022-11-15T18:55:47.110Z,19.34
2022-11-15T18:58:13.544Z,19.33
2022-11-15T19:00:39.959Z,19.34
2022-11-15T19:03:06.394Z,19.34
2022-11-15T19:05:32.846Z,19.31
2022-11-15T19:07:59.329Z,19.30
2022-11-15T19:10:27.708Z,19.30
2022-11-15T19:12:54.206Z,19.29
2022-11-15T19:15:20.601Z,19.29
2022-11-15T19:17:47.054Z,19.28
2022-11-15T19:20:13.821Z,19.29
2022-11-15T19:22:42.232Z,19.31
2022-11-15T19:25:08.756Z,19.30
2022-11-15T19:27:38.011Z,19.31
2022-11-15T19:30:04.637Z,19.32
2022-11-15T19:32:31.085Z,19.35
2022-11-15T19:34:58.842Z,19.33
2022-11-15T19:37:25.440Z,19.35
2022-11-15T19:39:51.892Z,19.36
2022-11-15T19:42:18.288Z,19.35
2022-11-15T19:44:44.702Z,19.36
2022-11-15T19:47:11.064Z,19.34
2022-11-15T19:49:37.407Z,19.30
2022-11-15T19:52:04.155Z,19.29
2022-11-15T19:54:30.520Z,19.29
2022-11-15T19:56:56.882Z,19.29
2022-11-15T19:59:24.391Z,19.29
2022-11-15T20:01:50.758Z,19.29
2022-11-15T20:04:17.281Z,19.28
2022-11-15T20:06:43.658Z,19.28
2022-11-15T20:09:12.326Z,19.26
2022-11-15T20:11:38.835Z,19.27
2022-11-15T20:14:05.373Z,19.26
2022-11-15T20:16:40.612Z,19.26
2022-11-15T20:19:07.089Z,19.25
2022-11-15T20:21:33.771Z,19.24
2022-11-15T20:24:00.255Z,19.25
2022-11-15T20:26:34.397Z,19.22
2022-11-15T20:29:00.787Z,19.23
2022-11-15T20:31:27.318Z,19.22
2022-11-15T20:33:53.774Z,19.19
2022-11-15T20:39:00.446Z,19.20
2022-11-15T20:41:27.074Z,19.18
2022-11-15T20:43:53.433Z,19.16
2022-11-15T20:46:21.581Z,19.16
2022-11-15T20:48:48.020Z,19.13
2022-11-15T20:51:14.456Z,19.13
2022-11-15T20:53:41.279Z,19.14
2022-11-15T20:58:48.230Z,19.11
2022-11-15T21:01:14.650Z,19.12
2022-11-15T21:03:42.227Z,19.11
2022-11-15T21:06:08.737Z,19.08
2022-11-15T21:08:35.906Z,19.08
2022-11-15T21:11:02.325Z,19.07
2022-11-15T21:13:29.190Z,19.08
2022-11-15T21:18:36.529Z,19.07
2022-11-15T21:21:03.045Z,19.05
2022-11-15T21:23:29.613Z,19.05
2022-11-15T21:28:36.714Z,19.03
2022-11-15T21:31:03.162Z,19.02
2022-11-15T21:33:29.496Z,19.02
2022-11-15T21:38:36.302Z,19.00
2022-11-15T21:41:02.997Z,19.00
2022-11-15T21:43:29.862Z,19.01
2022-11-15T21:45:56.807Z,18.99
2022-11-15T21:48:23.194Z,18.97
2022-11-15T21:50:49.587Z,18.98
2022-11-15T21:53:16.208Z,18.99
2022-11-15T21:58:23.100Z,18.97
2022-11-15T22:00:49.803Z,18.97
2022-11-15T22:03:16.336Z,18.96
2022-11-15T22:08:22.996Z,18.83
2022-11-15T22:10:49.362Z,18.87
2022-11-15T22:19:04.134Z,18.71
2022-11-15T22:21:30.554Z,18.73
2022-11-15T22:23:57.118Z,18.74
2022-11-15T22:26:24.265Z,18.76
2022-11-15T22:28:50.906Z,18.77
2022-11-15T22:31:17.547Z,18.77
2022-11-15T22:33:44.040Z,18.78
2022-11-15T22:36:10.367Z,18.78
2022-11-15T22:38:37.337Z,18.78
2022-11-15T22:41:04.133Z,18.78
2022-11-15T22:43:30.470Z,18.80
2022-11-15T22:45:56.825Z,18.80
2022-11-15T22:48:24.312Z,18.80
2022-11-15T22:50:50.820Z,18.79
2022-11-15T22:53:21.960Z,18.80
2022-11-15T22:55:48.395Z,18.80
2022-11-15T22:58:14.824Z,18.80
2022-11-15T23:00:41.193Z,18.80
2022-11-15T23:03:07.894Z,18.80
2022-11-15T23:05:34.483Z,18.80
2022-11-15T23:08:00.921Z,18.80
2022-11-15T23:10:28.360Z,18.79
2022-11-15T23:12:54.780Z,18.80
2022-11-15T23:15:21.326Z,18.80
2022-11-15T23:17:47.755Z,18.79
2022-11-15T23:20:41.417Z,18.79
2022-11-15T23:23:00.973Z,18.79
2022-11-15T23:25:27.607Z,18.79
2022-11-15T23:27:53.949Z,18.77
2022-11-15T23:30:20.376Z,18.77
2022-11-15T23:32:47.846Z,18.76
2022-11-15T23:35:14.376Z,18.77
2022-11-15T23:37:40.825Z,18.76
2022-11-15T23:40:07.301Z,18.77
2022-11-15T23:42:36.611Z,18.77
2022-11-15T23:45:02.970Z,18.76
2022-11-15T23:47:29.368Z,18.76
2022-11-15T23:49:55.866Z,18.74
2022-11-15T23:52:22.357Z,18.71
2022-11-15T23:54:48.686Z,18.71
2022-11-15T23:57:16.126Z,18.66
2022-11-15T23:59:42.474Z,18.66
